sensor_id;sensor_type;location;lat;lon;timestamp;P1;durP1;ratioP1;P2;durP2;ratioP2
13435;SDS011;6790;49.520;8.504;2022-10-17T00:02:16;10.47;;;4.63;;
13435;SDS011;6790;49.520;8.504;2022-10-17T00:04:41;14.13;;;5.20;;
13435;SDS011;6790;49.520;8.504;2022-10-17T00:07:07;9.07;;;4.33;;
13435;SDS011;6790;49.520;8.504;2022-10-17T00:09:33;7.77;;;4.87;;
13435;SDS011;6790;49.520;8.504;2022-10-17T00:11:58;9.77;;;5.27;;
13435;SDS011;6790;49.520;8.504;2022-10-17T00:14:24;8.10;;;4.90;;
13435;SDS011;6790;49.520;8.504;2022-10-17T00:16:50;7.53;;;4.93;;
13435;SDS011;6790;49.520;8.504;2022-10-17T00:19:15;8.83;;;5.73;;
13435;SDS011;6790;49.520;8.504;2022-10-17T00:21:41;6.30;;;4.53;;
13435;SDS011;6790;49.520;8.504;2022-10-17T00:24:07;9.87;;;4.93;;
13435;SDS011;6790;49.520;8.504;2022-10-17T00:26:32;7.63;;;4.93;;
13435;SDS011;6790;49.520;8.504;2022-10-17T00:28:58;6.50;;;4.67;;
13435;SDS011;6790;49.520;8.504;2022-10-17T00:31:24;8.37;;;4.87;;
13435;SDS011;6790;49.520;8.504;2022-10-17T00:33:50;6.03;;;4.60;;
13435;SDS011;6790;49.520;8.504;2022-10-17T00:36:18;8.13;;;4.80;;
13435;SDS011;6790;49.520;8.504;2022-10-17T00:38:50;11.07;;;4.90;;
13435;SDS011;6790;49.520;8.504;2022-10-17T00:41:23;6.53;;;4.50;;
13435;SDS011;6790;49.520;8.504;2022-10-17T00:43:54;11.67;;;4.77;;
13435;SDS011;6790;49.520;8.504;2022-10-17T00:46:33;5.63;;;3.97;;
13435;SDS011;6790;49.520;8.504;2022-10-17T00:49:04;9.27;;;5.10;;
13435;SDS011;6790;49.520;8.504;2022-10-17T00:51:33;4.87;;;4.03;;
13435;SDS011;6790;49.520;8.504;2022-10-17T00:54:07;13.63;;;4.77;;
13435;SDS011;6790;49.520;8.504;2022-10-17T00:56:35;7.17;;;4.70;;
13435;SDS011;6790;49.520;8.504;2022-10-17T00:59:02;6.07;;;3.90;;
13435;SDS011;6790;49.520;8.504;2022-10-17T01:01:28;5.00;;;3.57;;
13435;SDS011;6790;49.520;8.504;2022-10-17T01:03:53;10.23;;;4.63;;
13435;SDS011;6790;49.520;8.504;2022-10-17T01:06:19;6.50;;;4.30;;
13435;SDS011;6790;49.520;8.504;2022-10-17T01:08:45;8.77;;;4.20;;
13435;SDS011;6790;49.520;8.504;2022-10-17T01:14:16;7.67;;;4.60;;
13435;SDS011;6790;49.520;8.504;2022-10-17T01:17:02;5.40;;;4.13;;
13435;SDS011;6790;49.520;8.504;2022-10-17T01:19:49;6.60;;;4.77;;
13435;SDS011;6790;49.520;8.504;2022-10-17T01:22:39;13.03;;;4.30;;
13435;SDS011;6790;49.520;8.504;2022-10-17T01:31:16;8.60;;;5.83;;
13435;SDS011;6790;49.520;8.504;2022-10-17T01:33:53;7.57;;;5.50;;
13435;SDS011;6790;49.520;8.504;2022-10-17T01:36:38;8.20;;;6.03;;
13435;SDS011;6790;49.520;8.504;2022-10-17T01:39:22;9.37;;;6.33;;
13435;SDS011;6790;49.520;8.504;2022-10-17T01:42:05;8.53;;;6.10;;
13435;SDS011;6790;49.520;8.504;2022-10-17T01:44:45;7.03;;;5.17;;
13435;SDS011;6790;49.520;8.504;2022-10-17T01:47:32;8.03;;;5.23;;
13435;SDS011;6790;49.520;8.504;2022-10-17T01:50:00;8.93;;;5.40;;
13435;SDS011;6790;49.520;8.504;2022-10-17T01:53:05;7.20;;;5.20;;
13435;SDS011;6790;49.520;8.504;2022-10-17T01:55:31;6.50;;;4.60;;
13435;SDS011;6790;49.520;8.504;2022-10-17T01:58:04;6.97;;;5.10;;
13435;SDS011;6790;49.520;8.504;2022-10-17T02:00:36;8.00;;;4.63;;
13435;SDS011;6790;49.520;8.504;2022-10-17T02:03:06;7.13;;;4.57;;
13435;SDS011;6790;49.520;8.504;2022-10-17T02:05:38;6.27;;;4.50;;
13435;SDS011;6790;49.520;8.504;2022-10-17T02:08:06;8.60;;;4.13;;
13435;SDS011;6790;49.520;8.504;2022-10-17T02:10:38;5.03;;;3.90;;
13435;SDS011;6790;49.520;8.504;2022-10-17T02:13:23;5.97;;;4.40;;
13435;SDS011;6790;49.520;8.504;2022-10-17T02:16:29;7.63;;;4.47;;
13435;SDS011;6790;49.520;8.504;2022-10-17T02:31:32;5.17;;;3.53;;
13435;SDS011;6790;49.520;8.504;2022-10-17T02:34:05;3.77;;;3.20;;
13435;SDS011;6790;49.520;8.504;2022-10-17T02:36:39;8.43;;;3.90;;
13435;SDS011;6790;49.520;8.504;2022-10-17T02:39:13;6.50;;;4.00;;
13435;SDS011;6790;49.520;8.504;2022-10-17T02:41:40;9.43;;;3.90;;
13435;SDS011;6790;49.520;8.504;2022-10-17T02:44:07;6.87;;;3.50;;
13435;SDS011;6790;49.520;8.504;2022-10-17T02:46:34;4.23;;;3.10;;
13435;SDS011;6790;49.520;8.504;2022-10-17T02:49:04;4.77;;;3.50;;
13435;SDS011;6790;49.520;8.504;2022-10-17T02:51:46;8.47;;;3.70;;
13435;SDS011;6790;49.520;8.504;2022-10-17T02:57:04;4.40;;;3.40;;
13435;SDS011;6790;49.520;8.504;2022-10-17T02:59:38;9.03;;;3.10;;
13435;SDS011;6790;49.520;8.504;2022-10-17T03:02:06;3.27;;;2.73;;
13435;SDS011;6790;49.520;8.504;2022-10-17T03:04:32;6.77;;;3.40;;
13435;SDS011;6790;49.520;8.504;2022-10-17T03:06:58;7.90;;;3.47;;
13435;SDS011;6790;49.520;8.504;2022-10-17T03:09:24;6.00;;;3.10;;
13435;SDS011;6790;49.520;8.504;2022-10-17T03:11:50;4.30;;;3.20;;
13435;SDS011;6790;49.520;8.504;2022-10-17T03:14:15;11.77;;;3.50;;
13435;SDS011;6790;49.520;8.504;2022-10-17T03:16:41;7.17;;;3.67;;
13435;SDS011;6790;49.520;8.504;2022-10-17T03:19:07;6.87;;;3.20;;
13435;SDS011;6790;49.520;8.504;2022-10-17T03:21:33;5.67;;;3.60;;
13435;SDS011;6790;49.520;8.504;2022-10-17T03:24:01;3.33;;;3.03;;
13435;SDS011;6790;49.520;8.504;2022-10-17T03:26:27;3.93;;;3.00;;
13435;SDS011;6790;49.520;8.504;2022-10-17T03:28:53;3.93;;;3.40;;
13435;SDS011;6790;49.520;8.504;2022-10-17T03:31:19;5.93;;;3.47;;
13435;SDS011;6790;49.520;8.504;2022-10-17T03:33:45;10.53;;;3.10;;
13435;SDS011;6790;49.520;8.504;2022-10-17T03:36:12;6.10;;;3.43;;
13435;SDS011;6790;49.520;8.504;2022-10-17T03:38:40;6.90;;;3.53;;
13435;SDS011;6790;49.520;8.504;2022-10-17T03:41:07;5.63;;;3.47;;
13435;SDS011;6790;49.520;8.504;2022-10-17T03:43:33;4.73;;;3.50;;
13435;SDS011;6790;49.520;8.504;2022-10-17T03:45:58;3.83;;;3.40;;
13435;SDS011;6790;49.520;8.504;2022-10-17T03:48:25;4.10;;;3.60;;
13435;SDS011;6790;49.520;8.504;2022-10-17T03:50:58;4.60;;;3.70;;
13435;SDS011;6790;49.520;8.504;2022-10-17T03:53:26;5.07;;;3.63;;
13435;SDS011;6790;49.520;8.504;2022-10-17T03:55:52;3.90;;;3.47;;
13435;SDS011;6790;49.520;8.504;2022-10-17T04:00:46;6.47;;;3.70;;
13435;SDS011;6790;49.520;8.504;2022-10-17T04:03:12;3.83;;;2.90;;
13435;SDS011;6790;49.520;8.504;2022-10-17T04:05:37;4.00;;;3.60;;
13435;SDS011;6790;49.520;8.504;2022-10-17T04:08:03;9.27;;;4.07;;
13435;SDS011;6790;49.520;8.504;2022-10-17T04:10:29;8.00;;;3.87;;
13435;SDS011;6790;49.520;8.504;2022-10-17T04:12:55;6.97;;;3.40;;
13435;SDS011;6790;49.520;8.504;2022-10-17T04:15:20;7.33;;;3.67;;
13435;SDS011;6790;49.520;8.504;2022-10-17T04:17:46;4.70;;;3.30;;
13435;SDS011;6790;49.520;8.504;2022-10-17T04:20:12;5.27;;;3.50;;
13435;SDS011;6790;49.520;8.504;2022-10-17T04:22:37;7.87;;;3.60;;
13435;SDS011;6790;49.520;8.504;2022-10-17T04:25:03;5.30;;;3.20;;
13435;SDS011;6790;49.520;8.504;2022-10-17T04:27:29;9.63;;;3.37;;
13435;SDS011;6790;49.520;8.504;2022-10-17T04:29:55;7.70;;;3.27;;
13435;SDS011;6790;49.520;8.504;2022-10-17T04:32:20;7.47;;;3.40;;
13435;SDS011;6790;49.520;8.504;2022-10-17T04:34:49;3.60;;;3.17;;
13435;SDS011;6790;49.520;8.504;2022-10-17T04:37:15;3.43;;;3.13;;
13435;SDS011;6790;49.520;8.504;2022-10-17T04:39:40;5.17;;;3.37;;
13435;SDS011;6790;49.520;8.504;2022-10-17T04:42:06;7.73;;;3.67;;
13435;SDS011;6790;49.520;8.504;2022-10-17T04:44:32;4.23;;;3.07;;
13435;SDS011;6790;49.520;8.504;2022-10-17T04:46:59;6.47;;;3.63;;
13435;SDS011;6790;49.520;8.504;2022-10-17T04:49:25;7.63;;;5.23;;
13435;SDS011;6790;49.520;8.504;2022-10-17T04:51:50;10.33;;;7.10;;
13435;SDS011;6790;49.520;8.504;2022-10-17T04:54:16;11.13;;;8.07;;
13435;SDS011;6790;49.520;8.504;2022-10-17T04:56:42;8.57;;;6.70;;
13435;SDS011;6790;49.520;8.504;2022-10-17T04:59:08;12.80;;;8.37;;
13435;SDS011;6790;49.520;8.504;2022-10-17T05:01:33;12.10;;;7.63;;
13435;SDS011;6790;49.520;8.504;2022-10-17T05:03:59;12.97;;;8.37;;
13435;SDS011;6790;49.520;8.504;2022-10-17T05:06:25;5.80;;;3.97;;
13435;SDS011;6790;49.520;8.504;2022-10-17T05:08:56;5.50;;;4.50;;
13435;SDS011;6790;49.520;8.504;2022-10-17T05:11:23;15.10;;;9.43;;
13435;SDS011;6790;49.520;8.504;2022-10-17T05:13:51;15.17;;;9.17;;
13435;SDS011;6790;49.520;8.504;2022-10-17T05:16:19;15.60;;;10.03;;
13435;SDS011;6790;49.520;8.504;2022-10-17T05:18:52;9.50;;;5.90;;
13435;SDS011;6790;49.520;8.504;2022-10-17T05:21:22;5.47;;;4.30;;
13435;SDS011;6790;49.520;8.504;2022-10-17T05:23:49;8.03;;;5.60;;
13435;SDS011;6790;49.520;8.504;2022-10-17T05:26:15;8.17;;;5.90;;
13435;SDS011;6790;49.520;8.504;2022-10-17T05:28:41;5.23;;;3.87;;
13435;SDS011;6790;49.520;8.504;2022-10-17T05:31:08;7.80;;;5.43;;
13435;SDS011;6790;49.520;8.504;2022-10-17T05:33:35;13.47;;;8.43;;
13435;SDS011;6790;49.520;8.504;2022-10-17T05:36:01;30.57;;;16.57;;
13435;SDS011;6790;49.520;8.504;2022-10-17T05:38:27;13.77;;;8.53;;
13435;SDS011;6790;49.520;8.504;2022-10-17T05:40:56;9.90;;;6.80;;
13435;SDS011;6790;49.520;8.504;2022-10-17T05:43:23;11.37;;;4.87;;
13435;SDS011;6790;49.520;8.504;2022-10-17T05:45:49;7.87;;;4.67;;
13435;SDS011;6790;49.520;8.504;2022-10-17T05:48:15;9.47;;;4.53;;
13435;SDS011;6790;49.520;8.504;2022-10-17T05:50:41;5.73;;;4.30;;
13435;SDS011;6790;49.520;8.504;2022-10-17T05:53:06;6.33;;;4.03;;
13435;SDS011;6790;49.520;8.504;2022-10-17T05:55:32;6.13;;;3.93;;
13435;SDS011;6790;49.520;8.504;2022-10-17T05:57:58;7.30;;;4.33;;
13435;SDS011;6790;49.520;8.504;2022-10-17T06:00:25;7.00;;;4.00;;
13435;SDS011;6790;49.520;8.504;2022-10-17T06:02:51;7.73;;;3.80;;
13435;SDS011;6790;49.520;8.504;2022-10-17T06:05:16;6.67;;;3.63;;
13435;SDS011;6790;49.520;8.504;2022-10-17T06:07:43;6.53;;;3.80;;
13435;SDS011;6790;49.520;8.504;2022-10-17T06:10:09;5.20;;;3.50;;
13435;SDS011;6790;49.520;8.504;2022-10-17T06:12:40;7.90;;;4.33;;
13435;SDS011;6790;49.520;8.504;2022-10-17T06:15:07;10.20;;;4.30;;
13435;SDS011;6790;49.520;8.504;2022-10-17T06:17:33;4.57;;;3.80;;
13435;SDS011;6790;49.520;8.504;2022-10-17T06:19:59;6.10;;;3.83;;
13435;SDS011;6790;49.520;8.504;2022-10-17T06:22:25;5.27;;;4.10;;
13435;SDS011;6790;49.520;8.504;2022-10-17T06:24:51;6.37;;;4.33;;
13435;SDS011;6790;49.520;8.504;2022-10-17T06:27:17;10.23;;;4.40;;
13435;SDS011;6790;49.520;8.504;2022-10-17T06:29:44;9.37;;;4.43;;
13435;SDS011;6790;49.520;8.504;2022-10-17T06:32:11;8.70;;;4.93;;
13435;SDS011;6790;49.520;8.504;2022-10-17T06:34:37;8.10;;;4.77;;
13435;SDS011;6790;49.520;8.504;2022-10-17T06:37:03;9.20;;;4.87;;
13435;SDS011;6790;49.520;8.504;2022-10-17T06:39:28;10.70;;;4.97;;
13435;SDS011;6790;49.520;8.504;2022-10-17T06:41:58;9.43;;;5.30;;
13435;SDS011;6790;49.520;8.504;2022-10-17T06:44:25;7.30;;;5.30;;
13435;SDS011;6790;49.520;8.504;2022-10-17T06:46:54;8.27;;;5.00;;
13435;SDS011;6790;49.520;8.504;2022-10-17T06:49:20;10.33;;;5.17;;
13435;SDS011;6790;49.520;8.504;2022-10-17T06:51:46;9.07;;;4.60;;
13435;SDS011;6790;49.520;8.504;2022-10-17T06:54:12;12.30;;;5.60;;
13435;SDS011;6790;49.520;8.504;2022-10-17T06:56:38;8.70;;;4.70;;
13435;SDS011;6790;49.520;8.504;2022-10-17T06:59:03;6.43;;;4.87;;
13435;SDS011;6790;49.520;8.504;2022-10-17T07:01:29;6.37;;;4.87;;
13435;SDS011;6790;49.520;8.504;2022-10-17T07:03:56;5.60;;;4.00;;
13435;SDS011;6790;49.520;8.504;2022-10-17T07:06:22;6.23;;;4.27;;
13435;SDS011;6790;49.520;8.504;2022-10-17T07:08:48;9.37;;;5.00;;
13435;SDS011;6790;49.520;8.504;2022-10-17T07:11:15;7.27;;;4.97;;
13435;SDS011;6790;49.520;8.504;2022-10-17T07:13:43;5.97;;;4.23;;
13435;SDS011;6790;49.520;8.504;2022-10-17T07:16:09;7.17;;;4.60;;
13435;SDS011;6790;49.520;8.504;2022-10-17T07:18:36;6.47;;;3.83;;
13435;SDS011;6790;49.520;8.504;2022-10-17T07:21:03;8.57;;;4.27;;
13435;SDS011;6790;49.520;8.504;2022-10-17T07:23:29;8.30;;;4.50;;
13435;SDS011;6790;49.520;8.504;2022-10-17T07:25:58;9.27;;;5.10;;
13435;SDS011;6790;49.520;8.504;2022-10-17T07:28:31;8.83;;;4.53;;
13435;SDS011;6790;49.520;8.504;2022-10-17T07:31:06;7.73;;;4.70;;
13435;SDS011;6790;49.520;8.504;2022-10-17T07:33:38;8.67;;;5.80;;
13435;SDS011;6790;49.520;8.504;2022-10-17T07:36:05;7.67;;;5.10;;
13435;SDS011;6790;49.520;8.504;2022-10-17T07:38:31;8.30;;;4.77;;
13435;SDS011;6790;49.520;8.504;2022-10-17T07:40:57;10.57;;;5.10;;
13435;SDS011;6790;49.520;8.504;2022-10-17T07:43:25;8.13;;;4.97;;
13435;SDS011;6790;49.520;8.504;2022-10-17T07:45:52;11.47;;;4.63;;
13435;SDS011;6790;49.520;8.504;2022-10-17T07:48:19;8.80;;;4.67;;
13435;SDS011;6790;49.520;8.504;2022-10-17T07:50:47;7.57;;;4.20;;
13435;SDS011;6790;49.520;8.504;2022-10-17T07:53:13;5.20;;;4.40;;
13435;SDS011;6790;49.520;8.504;2022-10-17T07:55:39;7.90;;;3.90;;
13435;SDS011;6790;49.520;8.504;2022-10-17T07:58:06;6.43;;;3.53;;
13435;SDS011;6790;49.520;8.504;2022-10-17T08:00:33;5.90;;;3.90;;
13435;SDS011;6790;49.520;8.504;2022-10-17T08:03:00;5.30;;;3.27;;
13435;SDS011;6790;49.520;8.504;2022-10-17T08:05:25;4.33;;;3.23;;
13435;SDS011;6790;49.520;8.504;2022-10-17T08:07:51;6.33;;;3.10;;
13435;SDS011;6790;49.520;8.504;2022-10-17T08:10:17;6.77;;;3.10;;
13435;SDS011;6790;49.520;8.504;2022-10-17T08:12:43;5.73;;;3.10;;
13435;SDS011;6790;49.520;8.504;2022-10-17T08:15:09;9.47;;;7.17;;
13435;SDS011;6790;49.520;8.504;2022-10-17T08:17:35;4.60;;;3.70;;
13435;SDS011;6790;49.520;8.504;2022-10-17T08:20:03;6.77;;;5.57;;
13435;SDS011;6790;49.520;8.504;2022-10-17T08:22:30;7.33;;;3.60;;
13435;SDS011;6790;49.520;8.504;2022-10-17T08:24:57;5.63;;;3.00;;
13435;SDS011;6790;49.520;8.504;2022-10-17T08:27:22;7.40;;;3.07;;
13435;SDS011;6790;49.520;8.504;2022-10-17T08:29:49;6.80;;;3.17;;
13435;SDS011;6790;49.520;8.504;2022-10-17T08:32:22;3.50;;;2.83;;
13435;SDS011;6790;49.520;8.504;2022-10-17T08:34:50;3.10;;;2.80;;
13435;SDS011;6790;49.520;8.504;2022-10-17T08:37:16;3.37;;;2.70;;
13435;SDS011;6790;49.520;8.504;2022-10-17T08:39:43;4.90;;;2.33;;
13435;SDS011;6790;49.520;8.504;2022-10-17T08:45:35;7.33;;;5.37;;
13435;SDS011;6790;49.520;8.504;2022-10-17T08:48:20;5.37;;;2.93;;
13435;SDS011;6790;49.520;8.504;2022-10-17T08:50:50;6.67;;;2.87;;
13435;SDS011;6790;49.520;8.504;2022-10-17T08:58:52;3.67;;;2.57;;
13435;SDS011;6790;49.520;8.504;2022-10-17T09:02:09;3.80;;;3.00;;
13435;SDS011;6790;49.520;8.504;2022-10-17T09:08:03;3.70;;;2.83;;
13435;SDS011;6790;49.520;8.504;2022-10-17T09:16:37;5.37;;;3.10;;
13435;SDS011;6790;49.520;8.504;2022-10-17T09:19:31;6.77;;;2.80;;
13435;SDS011;6790;49.520;8.504;2022-10-17T09:25:08;5.23;;;2.70;;
13435;SDS011;6790;49.520;8.504;2022-10-17T09:27:42;6.47;;;2.70;;
13435;SDS011;6790;49.520;8.504;2022-10-17T09:30:19;4.83;;;2.47;;
13435;SDS011;6790;49.520;8.504;2022-10-17T09:32:57;3.33;;;2.40;;
13435;SDS011;6790;49.520;8.504;2022-10-17T09:35:23;2.60;;;2.13;;
13435;SDS011;6790;49.520;8.504;2022-10-17T09:37:52;2.87;;;2.50;;
13435;SDS011;6790;49.520;8.504;2022-10-17T09:40:20;4.77;;;2.87;;
13435;SDS011;6790;49.520;8.504;2022-10-17T09:42:50;5.33;;;2.97;;
13435;SDS011;6790;49.520;8.504;2022-10-17T09:45:21;3.87;;;2.50;;
13435;SDS011;6790;49.520;8.504;2022-10-17T09:50:26;2.80;;;2.50;;
13435;SDS011;6790;49.520;8.504;2022-10-17T09:52:54;3.30;;;2.63;;
13435;SDS011;6790;49.520;8.504;2022-10-17T09:58:05;5.90;;;3.07;;
13435;SDS011;6790;49.520;8.504;2022-10-17T10:00:36;3.35;;;2.42;;
13435;SDS011;6790;49.520;8.504;2022-10-17T10:05:41;6.10;;;2.67;;
13435;SDS011;6790;49.520;8.504;2022-10-17T10:08:27;5.63;;;2.80;;
13435;SDS011;6790;49.520;8.504;2022-10-17T10:11:12;3.97;;;2.70;;
13435;SDS011;6790;49.520;8.504;2022-10-17T10:13:38;3.35;;;2.60;;
13435;SDS011;6790;49.520;8.504;2022-10-17T10:16:29;5.15;;;2.72;;
13435;SDS011;6790;49.520;8.504;2022-10-17T10:18:56;5.78;;;2.75;;
13435;SDS011;6790;49.520;8.504;2022-10-17T10:21:23;4.80;;;2.55;;
13435;SDS011;6790;49.520;8.504;2022-10-17T10:32:06;5.18;;;2.70;;
13435;SDS011;6790;49.520;8.504;2022-10-17T10:34:36;5.90;;;2.80;;
13435;SDS011;6790;49.520;8.504;2022-10-17T10:37:20;7.93;;;2.92;;
13435;SDS011;6790;49.520;8.504;2022-10-17T10:42:48;2.67;;;2.35;;
13435;SDS011;6790;49.520;8.504;2022-10-17T10:58:51;5.22;;;2.80;;
13435;SDS011;6790;49.520;8.504;2022-10-17T11:01:24;3.72;;;2.80;;
13435;SDS011;6790;49.520;8.504;2022-10-17T11:04:16;4.40;;;2.67;;
13435;SDS011;6790;49.520;8.504;2022-10-17T11:07:12;3.70;;;2.28;;
13435;SDS011;6790;49.520;8.504;2022-10-17T11:09:52;7.55;;;2.75;;
13435;SDS011;6790;49.520;8.504;2022-10-17T11:12:47;4.20;;;3.17;;
13435;SDS011;6790;49.520;8.504;2022-10-17T11:18:51;3.55;;;2.65;;
13435;SDS011;6790;49.520;8.504;2022-10-17T11:24:36;4.78;;;3.30;;
13435;SDS011;6790;49.520;8.504;2022-10-17T11:27:12;5.43;;;3.15;;
13435;SDS011;6790;49.520;8.504;2022-10-17T11:29:39;4.18;;;2.55;;
13435;SDS011;6790;49.520;8.504;2022-10-17T11:34:50;3.25;;;2.60;;
13435;SDS011;6790;49.520;8.504;2022-10-17T11:37:25;3.67;;;2.63;;
13435;SDS011;6790;49.520;8.504;2022-10-17T11:40:01;3.72;;;2.50;;
13435;SDS011;6790;49.520;8.504;2022-10-17T11:42:40;4.22;;;2.72;;
13435;SDS011;6790;49.520;8.504;2022-10-17T11:45:19;4.05;;;2.60;;
13435;SDS011;6790;49.520;8.504;2022-10-17T11:47:52;3.60;;;2.70;;
13435;SDS011;6790;49.520;8.504;2022-10-17T11:55:47;3.05;;;2.60;;
13435;SDS011;6790;49.520;8.504;2022-10-17T12:03:42;3.10;;;2.63;;
13435;SDS011;6790;49.520;8.504;2022-10-17T12:09:34;3.13;;;2.65;;
13435;SDS011;6790;49.520;8.504;2022-10-17T12:12:23;4.53;;;2.35;;
13435;SDS011;6790;49.520;8.504;2022-10-17T12:15:25;3.05;;;2.38;;
13435;SDS011;6790;49.520;8.504;2022-10-17T12:17:59;3.17;;;2.58;;
13435;SDS011;6790;49.520;8.504;2022-10-17T12:28:32;3.25;;;2.30;;
13435;SDS011;6790;49.520;8.504;2022-10-17T12:36:40;4.20;;;2.30;;
13435;SDS011;6790;49.520;8.504;2022-10-17T12:52:24;4.90;;;3.20;;
13435;SDS011;6790;49.520;8.504;2022-10-17T12:55:00;2.88;;;2.50;;
13435;SDS011;6790;49.520;8.504;2022-10-17T13:00:24;5.65;;;2.38;;
13435;SDS011;6790;49.520;8.504;2022-10-17T13:03:12;3.88;;;2.65;;
13435;SDS011;6790;49.520;8.504;2022-10-17T13:05:47;5.03;;;2.65;;
13435;SDS011;6790;49.520;8.504;2022-10-17T13:08:29;5.53;;;2.40;;
13435;SDS011;6790;49.520;8.504;2022-10-17T13:10:59;5.22;;;2.72;;
13435;SDS011;6790;49.520;8.504;2022-10-17T13:19:24;6.63;;;2.55;;
13435;SDS011;6790;49.520;8.504;2022-10-17T13:22:00;4.25;;;2.70;;
13435;SDS011;6790;49.520;8.504;2022-10-17T13:24:31;3.33;;;2.60;;
13435;SDS011;6790;49.520;8.504;2022-10-17T13:27:02;3.03;;;2.45;;
13435;SDS011;6790;49.520;8.504;2022-10-17T13:29:30;3.10;;;2.70;;
13435;SDS011;6790;49.520;8.504;2022-10-17T13:32:00;3.33;;;2.92;;
13435;SDS011;6790;49.520;8.504;2022-10-17T13:34:28;2.72;;;2.53;;
13435;SDS011;6790;49.520;8.504;2022-10-17T13:37:00;4.88;;;2.45;;
13435;SDS011;6790;49.520;8.504;2022-10-17T13:39:33;2.72;;;2.15;;
13435;SDS011;6790;49.520;8.504;2022-10-17T13:42:05;5.10;;;3.97;;
13435;SDS011;6790;49.520;8.504;2022-10-17T13:44:47;4.95;;;3.97;;
13435;SDS011;6790;49.520;8.504;2022-10-17T13:47:24;4.78;;;3.97;;
13435;SDS011;6790;49.520;8.504;2022-10-17T13:49:55;3.42;;;3.00;;
13435;SDS011;6790;49.520;8.504;2022-10-17T13:52:23;3.28;;;2.53;;
13435;SDS011;6790;49.520;8.504;2022-10-17T13:54:53;7.13;;;3.08;;
13435;SDS011;6790;49.520;8.504;2022-10-17T13:57:24;6.82;;;2.63;;
13435;SDS011;6790;49.520;8.504;2022-10-17T13:59:58;3.58;;;2.40;;
13435;SDS011;6790;49.520;8.504;2022-10-17T14:02:30;2.60;;;2.40;;
13435;SDS011;6790;49.520;8.504;2022-10-17T14:05:02;4.28;;;2.70;;
13435;SDS011;6790;49.520;8.504;2022-10-17T14:07:42;4.43;;;2.72;;
13435;SDS011;6790;49.520;8.504;2022-10-17T14:10:29;3.05;;;2.47;;
13435;SDS011;6790;49.520;8.504;2022-10-17T14:12:58;4.32;;;2.60;;
13435;SDS011;6790;49.520;8.504;2022-10-17T14:15:30;7.82;;;2.60;;
13435;SDS011;6790;49.520;8.504;2022-10-17T14:17:59;2.88;;;2.58;;
13435;SDS011;6790;49.520;8.504;2022-10-17T14:20:29;3.22;;;2.13;;
13435;SDS011;6790;49.520;8.504;2022-10-17T14:22:56;2.85;;;2.65;;
13435;SDS011;6790;49.520;8.504;2022-10-17T14:25:26;4.55;;;2.75;;
13435;SDS011;6790;49.520;8.504;2022-10-17T14:30:46;4.55;;;2.42;;
13435;SDS011;6790;49.520;8.504;2022-10-17T14:33:27;11.68;;;7.90;;
13435;SDS011;6790;49.520;8.504;2022-10-17T14:35:56;4.28;;;3.88;;
13435;SDS011;6790;49.520;8.504;2022-10-17T14:38:23;8.02;;;6.35;;
13435;SDS011;6790;49.520;8.504;2022-10-17T14:41:35;9.10;;;7.32;;
13435;SDS011;6790;49.520;8.504;2022-10-17T14:43:43;19.75;;;11.70;;
13435;SDS011;6790;49.520;8.504;2022-10-17T14:46:13;6.57;;;3.53;;
13435;SDS011;6790;49.520;8.504;2022-10-17T14:48:40;18.50;;;4.97;;
13435;SDS011;6790;49.520;8.504;2022-10-17T14:51:14;5.45;;;3.35;;
13435;SDS011;6790;49.520;8.504;2022-10-17T14:53:43;7.57;;;2.78;;
13435;SDS011;6790;49.520;8.504;2022-10-17T14:56:40;3.22;;;2.58;;
13435;SDS011;6790;49.520;8.504;2022-10-17T14:59:07;7.60;;;2.70;;
13435;SDS011;6790;49.520;8.504;2022-10-17T15:01:36;4.40;;;2.90;;
13435;SDS011;6790;49.520;8.504;2022-10-17T15:04:02;4.88;;;3.13;;
13435;SDS011;6790;49.520;8.504;2022-10-17T15:06:29;5.28;;;2.53;;
13435;SDS011;6790;49.520;8.504;2022-10-17T15:08:57;7.07;;;2.70;;
13435;SDS011;6790;49.520;8.504;2022-10-17T15:11:23;5.10;;;2.95;;
13435;SDS011;6790;49.520;8.504;2022-10-17T15:13:50;8.23;;;3.55;;
13435;SDS011;6790;49.520;8.504;2022-10-17T15:16:26;6.47;;;3.53;;
13435;SDS011;6790;49.520;8.504;2022-10-17T15:18:56;6.15;;;4.20;;
13435;SDS011;6790;49.520;8.504;2022-10-17T15:21:22;5.95;;;3.13;;
13435;SDS011;6790;49.520;8.504;2022-10-17T15:23:49;5.55;;;3.17;;
13435;SDS011;6790;49.520;8.504;2022-10-17T15:26:23;3.75;;;3.25;;
13435;SDS011;6790;49.520;8.504;2022-10-17T15:28:53;4.55;;;3.15;;
13435;SDS011;6790;49.520;8.504;2022-10-17T15:31:20;3.35;;;2.50;;
13435;SDS011;6790;49.520;8.504;2022-10-17T15:33:47;5.93;;;3.03;;
13435;SDS011;6790;49.520;8.504;2022-10-17T15:36:18;5.28;;;3.00;;
13435;SDS011;6790;49.520;8.504;2022-10-17T15:38:47;5.15;;;3.20;;
13435;SDS011;6790;49.520;8.504;2022-10-17T15:41:16;4.97;;;3.25;;
13435;SDS011;6790;49.520;8.504;2022-10-17T15:43:41;3.83;;;3.00;;
13435;SDS011;6790;49.520;8.504;2022-10-17T15:46:11;5.53;;;2.95;;
13435;SDS011;6790;49.520;8.504;2022-10-17T15:48:40;5.85;;;2.88;;
13435;SDS011;6790;49.520;8.504;2022-10-17T15:51:06;14.85;;;9.20;;
13435;SDS011;6790;49.520;8.504;2022-10-17T15:53:32;6.05;;;3.38;;
13435;SDS011;6790;49.520;8.504;2022-10-17T15:55:59;8.52;;;4.45;;
13435;SDS011;6790;49.520;8.504;2022-10-17T15:58:26;10.85;;;5.93;;
13435;SDS011;6790;49.520;8.504;2022-10-17T16:01:02;11.65;;;6.95;;
13435;SDS011;6790;49.520;8.504;2022-10-17T16:03:30;14.02;;;5.68;;
13435;SDS011;6790;49.520;8.504;2022-10-17T16:05:57;12.30;;;4.47;;
13435;SDS011;6790;49.520;8.504;2022-10-17T16:08:23;9.52;;;4.68;;
13435;SDS011;6790;49.520;8.504;2022-10-17T16:10:49;38.25;;;7.60;;
13435;SDS011;6790;49.520;8.504;2022-10-17T16:13:20;33.78;;;6.32;;
13435;SDS011;6790;49.520;8.504;2022-10-17T16:15:48;23.45;;;5.03;;
13435;SDS011;6790;49.520;8.504;2022-10-17T16:18:14;26.63;;;5.38;;
13435;SDS011;6790;49.520;8.504;2022-10-17T16:20:40;48.17;;;8.73;;
13435;SDS011;6790;49.520;8.504;2022-10-17T16:23:05;89.35;;;12.20;;
13435;SDS011;6790;49.520;8.504;2022-10-17T16:25:32;198.63;;;22.05;;
13435;SDS011;6790;49.520;8.504;2022-10-17T16:27:59;65.82;;;9.63;;
13435;SDS011;6790;49.520;8.504;2022-10-17T16:30:26;63.33;;;10.35;;
13435;SDS011;6790;49.520;8.504;2022-10-17T16:32:54;42.53;;;10.25;;
13435;SDS011;6790;49.520;8.504;2022-10-17T16:35:22;74.32;;;11.98;;
13435;SDS011;6790;49.520;8.504;2022-10-17T16:37:53;65.80;;;11.52;;
13435;SDS011;6790;49.520;8.504;2022-10-17T16:40:20;279.83;;;32.35;;
13435;SDS011;6790;49.520;8.504;2022-10-17T16:42:46;202.93;;;25.30;;
13435;SDS011;6790;49.520;8.504;2022-10-17T16:45:16;140.75;;;20.50;;
13435;SDS011;6790;49.520;8.504;2022-10-17T16:47:45;97.50;;;17.27;;
13435;SDS011;6790;49.520;8.504;2022-10-17T16:50:11;57.83;;;13.23;;
13435;SDS011;6790;49.520;8.504;2022-10-17T16:52:37;60.38;;;11.63;;
13435;SDS011;6790;49.520;8.504;2022-10-17T16:55:03;67.50;;;15.53;;
13435;SDS011;6790;49.520;8.504;2022-10-17T16:57:29;37.22;;;10.32;;
13435;SDS011;6790;49.520;8.504;2022-10-17T16:59:55;44.03;;;11.43;;
13435;SDS011;6790;49.520;8.504;2022-10-17T17:02:21;32.30;;;12.80;;
13435;SDS011;6790;49.520;8.504;2022-10-17T17:04:46;35.50;;;13.83;;
13435;SDS011;6790;49.520;8.504;2022-10-17T17:07:12;29.10;;;11.83;;
13435;SDS011;6790;49.520;8.504;2022-10-17T17:09:38;34.33;;;12.73;;
13435;SDS011;6790;49.520;8.504;2022-10-17T17:12:04;21.07;;;9.67;;
13435;SDS011;6790;49.520;8.504;2022-10-17T17:14:30;17.57;;;8.60;;
13435;SDS011;6790;49.520;8.504;2022-10-17T17:16:56;21.63;;;8.67;;
13435;SDS011;6790;49.520;8.504;2022-10-17T17:19:21;22.90;;;7.23;;
13435;SDS011;6790;49.520;8.504;2022-10-17T17:21:47;36.97;;;6.77;;
13435;SDS011;6790;49.520;8.504;2022-10-17T17:24:15;13.70;;;6.13;;
13435;SDS011;6790;49.520;8.504;2022-10-17T17:26:42;14.10;;;5.97;;
13435;SDS011;6790;49.520;8.504;2022-10-17T17:29:08;16.17;;;7.87;;
13435;SDS011;6790;49.520;8.504;2022-10-17T17:31:36;12.43;;;6.60;;
13435;SDS011;6790;49.520;8.504;2022-10-17T17:34:03;12.03;;;5.80;;
13435;SDS011;6790;49.520;8.504;2022-10-17T17:36:30;11.83;;;5.23;;
13435;SDS011;6790;49.520;8.504;2022-10-17T17:38:59;9.90;;;6.03;;